Terminal Aerodrome Forecast
Issued by NWS

Home | Current Version | Previous Version | Graphics & Text | Print | Product List | Glossary Off
Versions: 1 2 3 4 5 6 7 8 9 10 11 12 13 14 15 16

000
FTUS43 KUNR 302300
TAFGCC
TAF
KGCC 302337Z 3100/3124 02008KT P6SM BKN200
     FM310300 19007KT P6SM BKN200
     FM311900 33012KT P6SM OVC040=

USA.gov is the U.S. government's official web portal to all federal, state and local government web resources and services.